logo
Search for airport 
image banner adimage banner adimage banner ad
image banner ad

LOGT - Leoben/Timmersdorf

Located in District Leoben, Austria

ICAO - LOGT, IATA -

Data provided by Airmate  

General information

Coordinates: N47°22'47" E14°57'51"
Elevation is 2050 feet MSL.
 
View others Airports in Styria

Operational data

Special qualification required
Current time UTC:
Current local time:
Weather at : LOXZ - Zeltweg ( 26 km )
METAR: LOXZ 150950Z 09003KT 050V130 9999 FEW050 BKN220 18/11 Q1011 NOSIG
TAF: TAF LOXZ 150815Z 1509/1518 VRB03KT 9999 FEW060 SCT180 BKN250 TEMPO 1512/1518 04010KT SHRA SCT050CB BKN060 PROB40 TEMPO 1517/1518 04010G20KT 6000 TSRA SCT010 BKN050CB
View NOTAMs / SUP AIP / TFR affecting this airport [VIEW]
Communications frequencies: [VIEW]

Runways:

RWY identifierQFULength (ft)Width (ft)SurfaceLDA (ft)
11205198UNK
29205198UNK

Airport contact information

Address: District Leoben Austria

Other aviation service providers

Aviation club (not for profit)

Alpine-Sportflieger-Club Leoben

Alpine-Sportflieger-Club Leoben
office@segelflug.at+43383382504
+43383382504

Satellite view of LOGT